LTBJLGSR

Guest
Details From LTBJ - ADNAN MENDERES
To LGSR - SANTORINI
Flight Number -
Tags generated
Created
Modified
Stats Distance 139 nm / 258 km
Max Altitude 16,700 ft / 5,090 m
Waypoints 3
Social Downloads 0
Likes 0
Share VATSIM

Download

Looking for another format? Having issues loading an existing format? Contact us
Advertisement - Login to hide

Notes

Basic altitude profile: - Ascent Rate: 2500ft/min - Ascent Speed: 250kts - Cruise Altitude: 35000ft - Cruise Speed: 420kts - Descent Rate: 1500ft/min - Descent Speed: 250kts Options: - Use NATs: yes - Use PACOTS: yes - Use low airways: yes - Use high airways: yes

Route

LTBJ URNIL LGSR

ID Type Via Altitude Latitude Longitude Leg Dist Tot Dist Heading (true) Name
O LTBJ APT - 0 ft / 0 m 38.29221˚ 27.15594˚ - 0 nm - ADNAN MENDERES
URNIL FIX - 16,700 ft / 5,090 m 37.68500˚ 26.52861˚ 47 nm 47 nm 219° / 219° -
O LGSR APT - 0 ft / 0 m 36.39895˚ 25.47851˚ 92 nm 139 nm 213° / 213° SANTORINI

Altitude Profile

Advertisement - Login to hide

LTBJ

Details ICAO LTBJ (ADB)
Name ADNAN MENDERES
Region Turkey
Timezone Europe/Istanbul (UTC+3.0)
Stats Elevation 412 ft / 126 m (AMSL)
Location 38.292210° 27.155939°
Runways 2
Magnetic Variation 4.937° E

METAR

LTBJ 211450Z 36013KT 9999 FEW040 SCT200 31/16 Q1010 NOSIG

Decode

TAF

TAF AMD LTBJ 211027Z 2110/2206 35012KT 9999 FEW040 BECMG 2114/2116 CAVOK BECMG 2116/2118 VRB02KT

Decode

Departure Runways

ID Width Length Bearing (true) Bearing (mag) Surface Threshold Offset Overrun Length
16L 147 ft / 45 m 10,635 ft / 3,242 m 166.78° 161.84° Asphalt 0 ft / 0 m 197 ft / 60 m
16R 147 ft / 45 m 10,651 ft / 3,246 m 166.71° 161.77° Concrete 0 ft / 0 m 197 ft / 60 m
34L 147 ft / 45 m 10,651 ft / 3,246 m 346.72° 341.78° Concrete 0 ft / 0 m 197 ft / 60 m
34R 147 ft / 45 m 10,635 ft / 3,242 m 346.79° 341.85° Asphalt 0 ft / 0 m 197 ft / 60 m

LGSR

Details ICAO LGSR (JTR)
Name SANTORINI
Region Greece
Timezone Europe/Athens (UTC+3.0)
Stats Elevation 127 ft / 39 m (AMSL)
Location 36.398949° 25.478507°
Runways 2
Magnetic Variation 4.553° E

METAR

LGSR 211450Z 01009KT CAVOK 22/18 Q1010 RMK SCT180 BLU

Decode

TAF

TAF LGSR 211100Z 2112/2212 02012KT 9999 FEW008 SCT020 BECMG 2122/2124 32012KT

Decode

Destination Runways

ID Width Length Bearing (true) Bearing (mag) Surface Threshold Offset Overrun Length
16L 98 ft / 30 m 6,978 ft / 2,127 m 159.53° 154.98° Asphalt 0 ft / 0 m 909 ft / 277 m
16R 98 ft / 30 m 6,969 ft / 2,124 m 159.56° 155.01° Asphalt 0 ft / 0 m 420 ft / 128 m
34L 98 ft / 30 m 6,969 ft / 2,124 m 339.56° 335.01° Asphalt 0 ft / 0 m 0 ft / 0 m
34R 98 ft / 30 m 6,978 ft / 2,127 m 339.54° 334.99° Asphalt 0 ft / 0 m 0 ft / 0 m